createdAt,value
2023-11-30T00:55:17.685Z,9.75
2023-11-30T00:57:47.941Z,10.23
2023-11-30T01:00:17.464Z,9.65
2023-11-30T01:02:46.229Z,10.25
2023-11-30T01:05:15.079Z,11.85
2023-11-30T01:07:43.819Z,10.27
2023-11-30T01:10:12.516Z,11.15
2023-11-30T01:12:41.859Z,11.50
2023-11-30T01:15:12.478Z,11.15
2023-11-30T01:17:41.984Z,10.85
2023-11-30T01:20:12.001Z,11.70
2023-11-30T01:22:40.787Z,11.02
2023-11-30T01:25:10.000Z,10.65
2023-11-30T01:27:39.214Z,11.48
2023-11-30T01:30:08.687Z,12.05
2023-11-30T01:32:38.918Z,11.68
2023-11-30T01:35:09.779Z,11.70
2023-11-30T01:37:39.970Z,11.80
2023-11-30T01:40:10.846Z,10.75
2023-11-30T01:42:40.131Z,11.32
2023-11-30T01:45:10.757Z,11.45
2023-11-30T01:47:41.086Z,11.50
2023-11-30T01:50:10.744Z,11.52
2023-11-30T01:52:39.686Z,11.60
2023-11-30T01:55:10.593Z,12.05
2023-11-30T01:57:40.711Z,11.20
2023-11-30T02:00:11.691Z,12.15
2023-11-30T02:02:45.557Z,11.63
2023-11-30T02:05:14.763Z,11.27
2023-11-30T02:07:43.595Z,10.98
2023-11-30T02:10:12.492Z,11.88
2023-11-30T02:12:41.685Z,10.98
2023-11-30T02:15:12.245Z,11.30
2023-11-30T02:17:41.074Z,11.70
2023-11-30T02:20:12.317Z,10.57
2023-11-30T02:22:42.855Z,12.55
2023-11-30T02:25:11.680Z,9.82
2023-11-30T02:27:40.725Z,10.15
2023-11-30T02:30:11.555Z,11.70
2023-11-30T02:32:40.538Z,11.00
2023-11-30T02:35:10.159Z,11.60
2023-11-30T02:37:39.313Z,11.80
2023-11-30T02:40:10.824Z,11.68
2023-11-30T02:42:39.573Z,10.05
2023-11-30T02:45:09.730Z,10.88
2023-11-30T02:47:38.572Z,12.20
2023-11-30T02:50:08.627Z,11.57
2023-11-30T02:52:37.347Z,11.23
2023-11-30T02:55:06.920Z,10.52
2023-11-30T02:57:37.959Z,11.30
2023-11-30T03:00:08.230Z,11.02
2023-11-30T03:02:36.983Z,11.80
2023-11-30T03:05:06.485Z,11.13
2023-11-30T03:07:35.245Z,10.50
2023-11-30T03:10:04.556Z,10.45
2023-11-30T03:12:33.373Z,11.05
2023-11-30T03:15:04.026Z,11.38
2023-11-30T03:17:33.289Z,11.38
2023-11-30T03:20:02.045Z,11.55
2023-11-30T03:22:30.862Z,11.55
2023-11-30T03:24:59.652Z,11.48
2023-11-30T03:27:28.379Z,12.60
2023-11-30T03:29:57.163Z,10.85
2023-11-30T03:32:27.331Z,11.13
2023-11-30T03:34:56.043Z,11.18
2023-11-30T03:37:24.779Z,12.43
2023-11-30T03:39:53.642Z,10.80
2023-11-30T03:42:22.609Z,11.30
2023-11-30T03:44:51.360Z,10.32
2023-11-30T03:47:20.096Z,11.00
2023-11-30T03:49:50.229Z,10.60
2023-11-30T03:52:18.978Z,11.48
2023-11-30T03:54:47.844Z,10.52
2023-11-30T03:57:16.716Z,10.40
2023-11-30T03:59:45.741Z,11.02
2023-11-30T04:02:14.479Z,10.40
2023-11-30T04:04:43.911Z,10.88
2023-11-30T04:07:14.200Z,10.10
2023-11-30T04:09:43.078Z,9.80
2023-11-30T04:12:11.874Z,11.80
2023-11-30T04:14:40.600Z,10.68
2023-11-30T04:17:09.364Z,9.80
2023-11-30T04:19:38.131Z,10.55
2023-11-30T04:22:06.899Z,9.85
2023-11-30T04:24:37.072Z,10.05
2023-11-30T04:27:06.557Z,10.35
2023-11-30T04:29:35.610Z,11.25
2023-11-30T04:32:05.062Z,11.18
2023-11-30T04:34:34.838Z,11.80
2023-11-30T04:37:03.625Z,10.90
2023-11-30T04:39:32.321Z,10.43
2023-11-30T04:42:02.917Z,10.80
2023-11-30T04:44:31.713Z,10.98
2023-11-30T04:47:01.118Z,11.52
2023-11-30T04:49:29.833Z,10.95
2023-11-30T04:52:00.094Z,9.70
2023-11-30T04:54:29.057Z,10.23
2023-11-30T04:56:57.787Z,10.45
2023-11-30T04:59:27.952Z,10.57
2023-11-30T05:01:56.803Z,10.52
2023-11-30T05:04:25.607Z,11.75
2023-11-30T05:06:54.331Z,10.40
2023-11-30T05:09:23.022Z,11.02
2023-11-30T05:11:51.712Z,9.82
2023-11-30T05:14:20.374Z,10.50
2023-11-30T05:16:50.475Z,10.88
2023-11-30T05:19:19.188Z,10.90
2023-11-30T05:21:47.936Z,11.70
2023-11-30T05:24:16.634Z,11.30
2023-11-30T05:26:45.462Z,9.68
2023-11-30T05:29:14.212Z,11.55
2023-11-30T05:31:43.087Z,12.43
2023-11-30T05:34:13.235Z,10.98
2023-11-30T05:36:42.532Z,10.95
2023-11-30T05:39:12.065Z,10.77
2023-11-30T05:41:40.792Z,10.25
2023-11-30T05:44:09.580Z,10.75
2023-11-30T05:46:39.247Z,10.57
2023-11-30T05:49:08.107Z,11.30
2023-11-30T05:51:38.200Z,10.60
2023-11-30T05:54:07.384Z,11.00
2023-11-30T05:56:36.164Z,10.70
2023-11-30T05:59:04.852Z,11.52
2023-11-30T06:01:33.574Z,11.55
2023-11-30T06:04:03.141Z,12.45
2023-11-30T06:06:32.132Z,10.65
2023-11-30T06:09:02.258Z,10.35
2023-11-30T06:11:31.563Z,10.93
2023-11-30T06:14:01.704Z,10.80
2023-11-30T06:16:30.773Z,10.18
2023-11-30T06:18:59.470Z,10.45
2023-11-30T06:21:28.157Z,10.55
2023-11-30T06:23:56.900Z,10.15
2023-11-30T06:26:27.002Z,9.98
2023-11-30T06:28:55.708Z,10.00
2023-11-30T06:31:24.431Z,9.65
2023-11-30T06:33:53.125Z,10.98
2023-11-30T06:36:22.870Z,9.95
2023-11-30T06:38:51.726Z,11.45
2023-11-30T06:41:20.480Z,10.82
2023-11-30T06:43:50.638Z,9.52
2023-11-30T06:46:22.600Z,10.25
2023-11-30T06:48:51.591Z,9.70
2023-11-30T06:51:20.779Z,10.95
2023-11-30T06:53:49.517Z,11.20
2023-11-30T06:56:18.230Z,11.05
2023-11-30T06:58:47.079Z,9.15
2023-11-30T07:01:17.309Z,10.63
2023-11-30T07:03:46.301Z,11.48
2023-11-30T07:06:15.266Z,11.68
2023-11-30T07:08:44.118Z,10.25
2023-11-30T07:11:13.470Z,10.10
2023-11-30T07:13:42.328Z,11.18
2023-11-30T07:16:12.437Z,10.07
2023-11-30T07:18:42.836Z,10.93
2023-11-30T07:21:15.727Z,11.68
2023-11-30T07:23:45.062Z,10.55
2023-11-30T07:26:14.525Z,11.52
2023-11-30T07:28:43.713Z,11.70
2023-11-30T07:31:20.030Z,10.82
2023-11-30T07:33:50.890Z,12.02
2023-11-30T07:36:19.698Z,10.60
2023-11-30T07:38:49.823Z,9.77
2023-11-30T07:41:19.114Z,12.40
2023-11-30T07:43:47.978Z,10.93
2023-11-30T07:46:17.262Z,11.45
2023-11-30T07:48:46.213Z,10.43
2023-11-30T07:51:16.509Z,11.80
2023-11-30T07:53:45.228Z,11.30
2023-11-30T07:56:14.320Z,12.23
2023-11-30T07:58:45.166Z,11.27
2023-11-30T08:01:14.228Z,11.43
2023-11-30T08:03:43.812Z,11.30
2023-11-30T08:06:12.814Z,12.48
2023-11-30T08:08:43.068Z,12.80
2023-11-30T08:11:13.377Z,11.85
2023-11-30T08:13:42.158Z,13.18
2023-11-30T08:16:11.150Z,11.18
2023-11-30T08:18:40.386Z,11.90
2023-11-30T08:21:09.514Z,11.63
2023-11-30T08:23:43.441Z,10.77
2023-11-30T08:26:16.366Z,12.23
2023-11-30T08:28:46.153Z,10.95
2023-11-30T08:31:15.088Z,11.80
2023-11-30T08:33:43.872Z,11.07
2023-11-30T08:36:13.431Z,11.65
2023-11-30T08:38:42.173Z,10.70
2023-11-30T08:41:11.030Z,11.00
2023-11-30T08:43:41.138Z,11.38
2023-11-30T08:46:10.263Z,11.73
2023-11-30T08:48:39.015Z,12.25
2023-11-30T08:51:09.586Z,10.68
2023-11-30T08:53:38.358Z,12.32
2023-11-30T08:56:08.223Z,10.38
2023-11-30T08:58:37.045Z,9.45
2023-11-30T09:01:08.447Z,11.18
2023-11-30T09:06:52.326Z,11.98
2023-11-30T09:09:21.529Z,11.35
2023-11-30T09:11:50.371Z,10.60
2023-11-30T09:14:19.264Z,11.45
2023-11-30T09:16:49.446Z,9.75
2023-11-30T09:19:18.255Z,10.55
2023-11-30T09:21:47.055Z,11.35
2023-11-30T09:27:14.820Z,8.32
2023-11-30T09:29:44.731Z,10.68
2023-11-30T09:32:15.156Z,11.30
2023-11-30T09:34:43.939Z,9.07
2023-11-30T09:37:12.814Z,9.50
2023-11-30T09:39:42.257Z,9.82
2023-11-30T09:42:17.251Z,9.52
2023-11-30T09:44:46.151Z,8.45
2023-11-30T09:47:17.932Z,8.70
2023-11-30T09:49:46.729Z,8.73
2023-11-30T09:52:15.658Z,9.63
2023-11-30T09:54:45.212Z,8.32
2023-11-30T10:00:14.274Z,8.70
2023-11-30T10:02:54.814Z,7.78
2023-11-30T10:05:26.457Z,6.53
2023-11-30T10:07:55.532Z,8.00
2023-11-30T10:10:24.419Z,7.90
2023-11-30T10:12:54.381Z,9.10
2023-11-30T10:15:23.714Z,7.82
2023-11-30T10:17:54.173Z,7.75
2023-11-30T10:20:23.043Z,8.23
2023-11-30T10:22:52.338Z,8.20
2023-11-30T10:25:21.118Z,8.13
2023-11-30T10:27:53.480Z,8.93
2023-11-30T10:30:27.616Z,9.13
2023-11-30T10:32:59.226Z,7.50
2023-11-30T10:35:31.822Z,9.45
2023-11-30T10:38:03.488Z,8.32
2023-11-30T10:40:32.342Z,9.13
2023-11-30T10:43:05.980Z,8.98
2023-11-30T10:45:39.627Z,8.15
2023-11-30T10:48:14.059Z,9.15
2023-11-30T10:50:42.849Z,9.60
2023-11-30T10:53:23.258Z,8.68
2023-11-30T10:55:53.357Z,7.93
2023-11-30T11:01:24.753Z,7.82
2023-11-30T11:03:58.087Z,8.25
2023-11-30T12:18:57.455Z,11.13
2023-11-30T12:21:26.190Z,8.60
2023-11-30T12:23:55.006Z,9.18
2023-11-30T12:26:23.738Z,11.48
2023-11-30T12:28:52.486Z,8.50
2023-11-30T12:31:21.305Z,10.07
2023-11-30T12:33:51.695Z,8.70
2023-11-30T12:36:23.806Z,9.38
2023-11-30T12:38:53.506Z,9.70
2023-11-30T12:41:22.221Z,8.40
2023-11-30T12:43:50.982Z,8.52
2023-11-30T12:46:19.735Z,9.02
2023-11-30T12:48:51.806Z,8.52
2023-11-30T12:51:22.569Z,10.23
2023-11-30T12:53:53.757Z,9.63
2023-11-30T12:56:30.736Z,9.02
2023-11-30T12:58:59.878Z,9.32
2023-11-30T13:01:28.647Z,10.07
2023-11-30T13:03:57.788Z,9.13
2023-11-30T13:06:28.013Z,9.50
2023-11-30T13:08:56.760Z,7.82
2023-11-30T13:11:25.508Z,9.68
2023-11-30T13:13:56.024Z,9.02
2023-11-30T13:16:25.599Z,9.27
2023-11-30T13:18:54.496Z,9.20
2023-11-30T13:21:23.801Z,8.70
2023-11-30T13:23:54.494Z,8.60
2023-11-30T13:26:23.608Z,9.57
2023-11-30T13:28:52.920Z,9.38
2023-11-30T13:31:22.928Z,8.57
2023-11-30T13:33:52.445Z,9.38
2023-11-30T13:36:21.474Z,9.25
2023-11-30T13:38:50.885Z,9.90
2023-11-30T13:41:23.051Z,10.20
2023-11-30T13:43:51.843Z,10.68
2023-11-30T13:46:22.388Z,10.70
2023-11-30T13:48:53.076Z,10.02
2023-11-30T13:51:21.932Z,9.63
2023-11-30T13:53:50.718Z,8.82
2023-11-30T13:56:26.176Z,9.88
2023-11-30T13:58:55.462Z,10.90
2023-11-30T14:01:24.367Z,8.82
2023-11-30T14:03:53.510Z,9.80
2023-11-30T14:06:22.398Z,8.60
2023-11-30T14:08:51.201Z,9.02
2023-11-30T14:11:21.743Z,10.40
2023-11-30T14:13:50.467Z,9.88
2023-11-30T14:16:19.456Z,9.55
2023-11-30T14:18:48.868Z,12.77
2023-11-30T14:21:17.598Z,9.68
2023-11-30T14:23:46.409Z,10.38
2023-11-30T14:26:16.288Z,10.48
2023-11-30T14:28:49.117Z,12.25
2023-11-30T14:31:18.574Z,10.25
2023-11-30T14:33:47.465Z,11.30
2023-11-30T14:36:16.861Z,9.90
2023-11-30T14:38:45.879Z,9.50
2023-11-30T14:41:14.691Z,9.80
2023-11-30T14:43:43.463Z,9.60
2023-11-30T14:46:14.039Z,9.63
2023-11-30T14:48:44.358Z,9.40
2023-11-30T14:51:14.516Z,8.43
2023-11-30T14:53:43.426Z,10.20
2023-11-30T14:56:12.850Z,7.88
2023-11-30T14:58:42.328Z,9.00
2023-11-30T15:01:12.955Z,9.38
2023-11-30T15:03:43.454Z,8.75
2023-11-30T15:06:12.375Z,9.13
2023-11-30T15:08:41.111Z,8.35
2023-11-30T15:11:10.414Z,8.27
2023-11-30T15:13:39.343Z,9.57
2023-11-30T15:16:08.361Z,9.10
2023-11-30T15:18:37.237Z,8.45
2023-11-30T15:21:07.767Z,9.30
2023-11-30T15:23:36.883Z,8.88
2023-11-30T15:26:05.844Z,8.95
2023-11-30T15:28:35.308Z,8.77
2023-11-30T15:31:04.106Z,8.88
2023-11-30T15:33:33.033Z,8.25
2023-11-30T15:36:01.962Z,8.95
2023-11-30T15:38:34.010Z,6.82
2023-11-30T15:41:04.202Z,9.65
2023-11-30T15:43:38.471Z,7.75
2023-11-30T15:46:07.784Z,8.95
2023-11-30T15:48:37.400Z,11.65
2023-11-30T15:51:07.031Z,9.88
2023-11-30T15:53:38.082Z,10.85
2023-11-30T15:56:07.237Z,10.13
2023-11-30T15:58:38.383Z,9.52
2023-11-30T16:01:12.269Z,10.68
2023-11-30T16:03:41.466Z,11.52
2023-11-30T16:06:11.898Z,11.30
2023-11-30T16:08:42.024Z,11.57
2023-11-30T16:11:15.092Z,11.55
2023-11-30T16:13:43.966Z,10.95
2023-11-30T16:16:13.968Z,13.52
2023-11-30T16:18:42.907Z,12.80
2023-11-30T16:21:16.807Z,11.88
2023-11-30T16:23:47.792Z,11.10
2023-11-30T16:26:19.996Z,12.38
2023-11-30T16:28:49.715Z,11.57
2023-11-30T16:31:18.750Z,11.60
2023-11-30T16:33:50.018Z,12.93
2023-11-30T16:36:19.506Z,12.57
2023-11-30T16:38:50.269Z,11.35
2023-11-30T16:41:19.374Z,10.45
2023-11-30T16:43:48.135Z,11.60
2023-11-30T16:46:17.447Z,9.10
2023-11-30T16:48:47.716Z,8.43
2023-11-30T16:51:16.521Z,10.02
2023-11-30T16:53:45.249Z,10.13
2023-11-30T16:56:15.522Z,10.10
2023-11-30T16:58:44.257Z,9.27
2023-11-30T17:01:12.946Z,10.18
2023-11-30T17:03:41.821Z,9.77
2023-11-30T17:06:10.886Z,11.35
2023-11-30T17:08:39.931Z,9.55
2023-11-30T17:11:09.794Z,13.23
2023-11-30T17:13:43.143Z,10.82
2023-11-30T17:16:12.913Z,10.95
2023-11-30T17:18:46.153Z,10.10
2023-11-30T17:21:15.980Z,11.43
2023-11-30T17:23:45.701Z,10.57
2023-11-30T17:26:15.094Z,11.18
2023-11-30T17:28:46.056Z,9.23
2023-11-30T17:31:15.095Z,9.70
2023-11-30T17:33:44.190Z,10.85
2023-11-30T17:36:13.589Z,9.50
2023-11-30T17:38:42.659Z,10.15
2023-11-30T17:41:11.739Z,13.35
2023-11-30T17:43:40.849Z,14.82
2023-11-30T17:46:11.276Z,14.45
2023-11-30T17:48:40.208Z,11.20
2023-11-30T17:51:12.697Z,11.70
2023-11-30T17:53:41.768Z,11.57
2023-11-30T17:56:10.812Z,10.98
2023-11-30T17:58:39.811Z,11.38
2023-11-30T18:01:10.456Z,12.25
2023-11-30T18:03:39.453Z,11.65
2023-11-30T18:06:10.530Z,12.38
2023-11-30T18:08:39.735Z,11.55
2023-11-30T18:11:13.013Z,10.23
2023-11-30T18:13:42.605Z,11.63
2023-11-30T18:16:13.578Z,12.48
2023-11-30T18:18:42.833Z,10.80
2023-11-30T18:21:13.017Z,12.50
2023-11-30T18:23:41.979Z,12.10
2023-11-30T18:26:10.695Z,11.50
2023-11-30T18:28:42.708Z,12.15
2023-11-30T18:31:20.385Z,14.10
2023-11-30T18:33:51.806Z,13.50
2023-11-30T18:36:20.727Z,12.55
2023-11-30T18:38:51.631Z,13.73
2023-11-30T18:41:21.376Z,14.45
2023-11-30T18:43:51.221Z,14.15
2023-11-30T18:46:21.643Z,13.63
2023-11-30T18:48:50.746Z,15.05
2023-11-30T18:51:19.607Z,11.63
2023-11-30T18:53:48.540Z,14.90
2023-11-30T18:56:20.561Z,13.00
2023-11-30T18:58:49.392Z,12.68
2023-11-30T19:01:18.136Z,13.77
2023-11-30T19:03:48.367Z,12.10
2023-11-30T19:06:17.703Z,12.90
2023-11-30T19:08:47.250Z,13.80
2023-11-30T19:11:17.099Z,12.38
2023-11-30T19:13:46.115Z,14.50
2023-11-30T19:16:18.519Z,14.57
2023-11-30T19:18:50.045Z,14.18
2023-11-30T19:21:19.675Z,14.27
2023-11-30T19:23:48.657Z,14.40
2023-11-30T19:26:17.753Z,14.75
2023-11-30T19:28:46.541Z,14.00
2023-11-30T19:31:15.347Z,15.05
2023-11-30T19:33:44.281Z,14.55
2023-11-30T19:36:14.841Z,15.43
2023-11-30T19:38:43.563Z,14.68
2023-11-30T19:41:12.642Z,13.85
2023-11-30T19:43:41.792Z,13.50
2023-11-30T19:46:10.661Z,14.30
2023-11-30T19:48:39.597Z,14.25
2023-11-30T19:51:08.782Z,15.00
2023-11-30T19:53:38.847Z,15.07
2023-11-30T19:56:08.275Z,14.48
2023-11-30T19:58:37.014Z,14.15
2023-11-30T20:01:06.690Z,13.50
2023-11-30T20:03:35.678Z,14.45
2023-11-30T20:06:04.849Z,13.25
2023-11-30T20:08:33.750Z,14.63
2023-11-30T20:11:06.437Z,11.50
2023-11-30T20:13:35.222Z,13.13
2023-11-30T20:16:05.493Z,13.02
2023-11-30T20:18:35.759Z,15.70
2023-11-30T20:21:05.734Z,11.85
2023-11-30T20:23:34.453Z,13.25
2023-11-30T20:26:04.649Z,13.35
2023-11-30T20:28:33.379Z,12.30
2023-11-30T20:31:02.283Z,12.45
2023-11-30T20:33:31.145Z,13.68
2023-11-30T20:35:59.978Z,14.48
2023-11-30T20:38:30.009Z,12.50
2023-11-30T20:40:59.019Z,12.23
2023-11-30T20:43:29.807Z,14.20
2023-11-30T20:45:58.520Z,15.07
2023-11-30T20:48:27.333Z,14.15
2023-11-30T20:50:56.028Z,12.90
2023-11-30T20:53:24.801Z,13.02
2023-11-30T20:55:53.519Z,13.13
2023-11-30T20:58:22.320Z,13.23
2023-11-30T21:00:52.534Z,13.82
2023-11-30T21:03:21.456Z,12.55
2023-11-30T21:05:50.324Z,12.15
2023-11-30T21:08:19.291Z,13.80
2023-11-30T21:10:48.141Z,12.75
2023-11-30T21:13:18.354Z,12.50
2023-11-30T21:15:47.113Z,12.23
2023-11-30T21:18:17.309Z,14.07
2023-11-30T21:20:46.097Z,12.23
2023-11-30T21:23:14.849Z,14.02
2023-11-30T21:25:44.454Z,13.52
2023-11-30T21:28:14.360Z,13.07
2023-11-30T21:30:43.259Z,12.95
2023-11-30T21:33:12.150Z,12.23
2023-11-30T21:35:42.364Z,13.95
2023-11-30T21:38:11.143Z,12.43
2023-11-30T21:40:40.410Z,13.38
2023-11-30T21:43:09.432Z,15.57
2023-11-30T21:45:38.305Z,13.68
2023-11-30T21:48:07.673Z,13.00
2023-11-30T21:50:36.548Z,13.00
2023-11-30T21:53:06.783Z,15.00
2023-11-30T21:55:35.571Z,13.32
2023-11-30T21:58:05.549Z,13.18
2023-11-30T22:00:35.128Z,14.68
2023-11-30T22:03:04.329Z,12.90
2023-11-30T22:05:36.450Z,12.43
2023-11-30T22:08:07.426Z,13.57
2023-11-30T22:10:36.196Z,10.85
2023-11-30T22:13:06.365Z,11.88
2023-11-30T22:15:35.174Z,12.63
2023-11-30T22:18:05.535Z,12.60
2023-11-30T22:20:35.393Z,13.88
2023-11-30T22:23:04.165Z,13.20
2023-11-30T22:25:34.253Z,12.05
2023-11-30T22:28:03.024Z,12.10
2023-11-30T22:30:31.854Z,8.00
2023-11-30T22:33:00.708Z,13.85
2023-11-30T22:35:29.549Z,12.55
2023-11-30T22:37:58.636Z,11.95
2023-11-30T22:40:27.600Z,14.38
2023-11-30T22:42:57.725Z,11.55
2023-11-30T22:45:26.579Z,11.52
2023-11-30T22:47:55.354Z,12.73
2023-11-30T22:50:25.394Z,13.77
2023-11-30T22:52:54.607Z,12.68
2023-11-30T22:55:23.998Z,12.32
2023-11-30T22:57:52.984Z,12.52
2023-11-30T23:00:25.511Z,11.32
2023-11-30T23:02:54.692Z,15.25
2023-11-30T23:05:23.996Z,11.45
2023-11-30T23:07:52.767Z,14.43
2023-11-30T23:10:21.599Z,11.00
2023-11-30T23:12:50.555Z,13.18
2023-11-30T23:15:19.377Z,14.30
2023-11-30T23:17:49.571Z,13.27
2023-11-30T23:20:19.080Z,13.48
2023-11-30T23:22:47.793Z,15.50
2023-11-30T23:25:16.812Z,14.35
2023-11-30T23:27:45.574Z,13.23
2023-11-30T23:30:14.672Z,13.30
2023-11-30T23:32:44.257Z,13.32
2023-11-30T23:35:15.774Z,14.55
2023-11-30T23:37:44.657Z,13.20
2023-11-30T23:40:14.620Z,11.48
2023-11-30T23:42:43.327Z,10.93
2023-11-30T23:45:12.442Z,10.43
2023-11-30T23:47:41.118Z,12.05
2023-11-30T23:50:10.763Z,12.35
2023-11-30T23:52:40.927Z,12.23
2023-11-30T23:55:10.213Z,12.00
2023-11-30T23:57:39.014Z,12.38
